Pagrindinis puslapis
METAR-TAF:

METAR-TAF

Oro uostai :

Palermas, Italija

platuma: 38-11N, ilguma: 013-06E, Aukštis: 21 m

Dabartinis oras

Ataskaita buvo paskelbta 43 minutes, ne 06:20 UTC
Vėjas 4 kt iš Šiaurės/Šiaurės Rytų
Temperatūra 21°C
Drėgmė 73%
Slėgis 1011 hPa
Matomumas 10 km arba daugiau
nėra debesų žemiau 1500 m ir nėra kamuolinių lietaus debesų

METAR: LICJ 070620Z 03004KT CAVOK 21/16 Q1011

Laikas: 09:03 (07:03 UTC)

Prognozė

Ataskaita buvo paskelbta 2 valandos ir 3 minutes, ne 05:00 UTC
Prognozė galioja nuo 07 metu 06 UTC su 08 metu 06 UTC
Vėjas 8 kt iš Pietų
Matomumas 10 km arba daugiau
Išsisklaidę debesys ne aukštis 2500 ft
Tapsmas
nuo 07 metu 09 UTC su 07 metu 11 UTC
Vėjas 12 kt iš Rytų/Šiaurės Rytų
Tapsmas
nuo 07 metu 20 UTC su 07 metu 22 UTC
Vėjas 5 kt nuo kintamojo kryptimis
Laikinai
nuo 07 metu 20 UTC su 08 metu 04 UTC
lietus

TAF: LICJ 070500Z 0706/0806 19008KT 9999 SCT025 BECMG 0709/0711 07012KT BECMG 0720/0722 VRB05KT TEMPO 0720/0804 RA

Orai ataskaitas ir orų prognozės (METAR, TAF).

turimą stotys yra geltonos ir raudonos taškus žemėlapyje.

Perkelti pele per norėdami pamatyti stoties vardą.

Tada spustelėkite, norėdami matyti oro stebėjimo ir prognozės.

Norėdami pakeisti žemėlapį: spustelėkite ant žalios mygtukų su juodo kryžiaus žemyn,; žalią mygtuką su brūkšneliu, jei norite nutolinti; arba žalių rodyklių gretimoms žemėlapius.


METAR-TAF: